Time;durP1;ratioP1;P1;durP2;ratioP2;P2;SDS_P1;SDS_P2;PMS_P1;PMS_P2;Temp;Humidity;BMP_temperature;BMP_pressure;BME280_temperature;BME280_humidity;BME280_pressure;Samples;Min_cycle;Max_cycle;Signal;HPM_P1;HPM_P2
2020/12/30 05:19:25;;;;;;;5.05;2.92;;;1.40;99.90;;;;;;5394688;23;20565;-73
2020/12/30 05:21:51;;;;;;;4.45;2.63;;;1.40;99.90;;;;;;4955967;29;20031;-73
2020/12/30 05:24:18;;;;;;;5.95;3.00;;;1.40;99.90;;;;;;4956047;29;20119;-72
2020/12/30 05:26:45;;;;;;;6.78;3.40;;;1.30;99.90;;;;;;4955966;29;20031;-72
2020/12/30 05:29:11;;;;;;;6.55;3.70;;;1.30;99.90;;;;;;4955925;29;20057;-73
2020/12/30 05:31:36;;;;;;;5.07;3.53;;;1.30;99.90;;;;;;4955481;28;20055;-73
2020/12/30 05:34:02;;;;;;;6.22;3.97;;;1.40;99.90;;;;;;4955885;29;20031;-79
2020/12/30 05:36:28;;;;;;;5.90;4.07;;;1.40;99.90;;;;;;4956202;29;20039;-73
2020/12/30 05:38:54;;;;;;;6.03;3.63;;;1.40;99.90;;;;;;4955859;29;20058;-77
2020/12/30 05:41:21;;;;;;;6.07;3.90;;;1.30;99.90;;;;;;4955935;29;20031;-76
2020/12/30 05:43:47;;;;;;;4.25;2.85;;;1.40;99.90;;;;;;4955601;29;20110;-71
2020/12/30 05:46:33;;;;;;;5.22;3.10;;;1.70;99.90;;;;;;4955958;29;20066;-70
2020/12/30 05:48:58;;;;;;;4.00;3.28;;;1.60;99.90;;;;;;4955378;29;20062;-72
2020/12/30 05:51:26;;;;;;;6.45;3.83;;;1.60;99.90;;;;;;4955301;29;20475;-68
2020/12/30 05:54:09;;;;;;;4.78;3.60;;;1.50;99.90;;;;;;4955847;29;20054;-68
2020/12/30 05:56:36;;;;;;;6.97;3.38;;;1.50;99.90;;;;;;4950064;29;20439;-68
2020/12/30 05:59:04;;;;;;;4.57;3.20;;;1.40;99.90;;;;;;4946263;29;20081;-71
2020/12/30 06:01:31;;;;;;;5.97;3.83;;;1.40;99.90;;;;;;4946148;29;20023;-71
2020/12/30 06:04:18;;;;;;;4.97;3.80;;;1.40;99.90;;;;;;4944721;29;20380;-71
2020/12/30 06:06:45;;;;;;;6.30;3.67;;;1.40;99.90;;;;;;4943723;29;20027;-71
2020/12/30 06:09:18;;;;;;;5.85;3.78;;;1.30;99.90;;;;;;4948063;29;20159;-71
2020/12/30 06:11:54;;;;;;;6.90;4.22;;;1.30;99.90;;;;;;4950579;29;20035;-71
2020/12/30 06:14:21;;;;;;;5.75;3.75;;;1.30;99.90;;;;;;4946686;29;20068;-71
2020/12/30 06:16:47;;;;;;;4.53;3.17;;;1.30;99.90;;;;;;4945696;29;20054;-71
2020/12/30 06:19:13;;;;;;;4.70;3.05;;;1.40;99.90;;;;;;4942944;29;20099;-71
2020/12/30 06:21:43;;;;;;;3.58;2.88;;;1.30;99.90;;;;;;4945486;29;20467;-69
2020/12/30 06:24:15;;;;;;;4.77;3.00;;;1.30;99.90;;;;;;4938744;29;20046;-71
2020/12/30 06:26:42;;;;;;;4.40;2.63;;;1.30;99.90;;;;;;4946220;29;20019;-72
2020/12/30 06:29:17;;;;;;;3.67;2.45;;;1.30;99.90;;;;;;4954616;29;20038;-69
2020/12/30 06:31:49;;;;;;;4.35;2.70;;;1.40;99.90;;;;;;4954484;29;20503;-75
2020/12/30 06:34:16;;;;;;;6.07;2.55;;;1.40;99.90;;;;;;4954764;29;20210;-75
2020/12/30 06:36:44;;;;;;;4.93;3.13;;;1.40;99.90;;;;;;4954620;29;20038;-75
2020/12/30 06:39:23;;;;;;;3.70;2.75;;;1.40;99.90;;;;;;4954522;29;20106;-75
2020/12/30 06:41:57;;;;;;;4.03;2.38;;;1.40;99.90;;;;;;4954511;29;20098;-75
2020/12/30 06:44:52;;;;;;;3.33;2.40;;;1.40;99.90;;;;;;4953811;28;20063;-75
2020/12/30 06:47:17;;;;;;;3.65;2.25;;;1.30;99.90;;;;;;4934345;29;20031;-75
2020/12/30 06:49:43;;;;;;;4.10;2.50;;;1.30;99.90;;;;;;4954280;28;20478;-75
2020/12/30 06:52:28;;;;;;;4.05;2.53;;;1.30;99.90;;;;;;4954451;29;20082;-75
2020/12/30 06:54:53;;;;;;;5.00;3.25;;;1.30;99.90;;;;;;4954153;28;20475;-75
2020/12/30 06:57:39;;;;;;;4.53;3.08;;;1.30;99.90;;;;;;4954455;29;20031;-75
2020/12/30 07:00:26;;;;;;;3.38;2.90;;;1.40;99.90;;;;;;4954229;29;20029;-76
2020/12/30 07:03:19;;;;;;;3.40;2.65;;;1.40;99.90;;;;;;4954046;29;20093;-76
2020/12/30 07:05:46;;;;;;;2.95;2.47;;;1.30;99.90;;;;;;4950016;29;20047;-75
2020/12/30 07:08:32;;;;;;;4.00;2.60;;;2.50;99.90;;;;;;4954414;29;20384;-75
2020/12/30 07:10:58;;;;;;;3.05;2.35;;;2.60;99.90;;;;;;4954084;28;20055;-70
2020/12/30 07:13:28;;;;;;;3.92;2.88;;;2.30;99.90;;;;;;4954212;29;20228;-77
2020/12/30 07:16:12;;;;;;;3.40;2.85;;;2.00;99.90;;;;;;4953992;29;20118;-76
2020/12/30 07:18:38;;;;;;;3.92;3.08;;;1.80;99.90;;;;;;4953959;28;20085;-77
2020/12/30 07:21:30;;;;;;;6.05;2.80;;;1.70;99.90;;;;;;4954064;29;20082;-75
2020/12/30 07:23:56;;;;;;;3.13;2.55;;;1.70;99.90;;;;;;4949336;29;20530;-74
2020/12/30 07:26:22;;;;;;;3.40;2.13;;;2.10;99.90;;;;;;4954293;29;20038;-75
2020/12/30 07:28:48;;;;;;;2.50;2.28;;;2.30;99.90;;;;;;4954409;28;20086;-75
2020/12/30 07:31:17;;;;;;;4.07;2.20;;;2.10;99.90;;;;;;4953535;29;20499;-78
2020/12/30 07:33:43;;;;;;;3.72;2.00;;;1.90;99.90;;;;;;4953903;29;20475;-72
2020/12/30 07:36:09;;;;;;;2.92;1.90;;;1.80;99.90;;;;;;4954074;29;20042;-76
2020/12/30 07:38:38;;;;;;;3.53;2.42;;;1.70;99.90;;;;;;4953823;28;20020;-75
2020/12/30 07:41:10;;;;;;;2.65;2.05;;;1.60;99.90;;;;;;4953860;29;20019;-75
2020/12/30 07:43:53;;;;;;;3.42;2.17;;;1.60;99.90;;;;;;4953702;29;20032;-80
2020/12/30 07:46:21;;;;;;;3.03;1.90;;;1.60;99.90;;;;;;4954150;29;20023;-79
2020/12/30 07:48:47;;;;;;;3.20;1.75;;;1.60;99.90;;;;;;4953742;29;20475;-74
2020/12/30 07:51:13;;;;;;;4.60;2.45;;;1.50;99.90;;;;;;4953771;29;20130;-77
2020/12/30 07:53:40;;;;;;;2.80;1.88;;;1.50;99.90;;;;;;4953967;28;20027;-82
2020/12/30 07:56:19;;;;;;;3.08;1.83;;;1.50;99.90;;;;;;4956540;28;20039;-81
2020/12/30 07:58:46;;;;;;;2.22;1.63;;;1.50;99.90;;;;;;4957494;29;20031;-81
2020/12/30 08:01:14;;;;;;;2.03;1.50;;;1.50;99.90;;;;;;4940248;29;20024;-77
2020/12/30 08:03:39;;;;;;;1.92;1.65;;;1.50;99.90;;;;;;4936190;28;20040;-76
2020/12/30 08:06:08;;;;;;;4.47;1.88;;;1.50;99.90;;;;;;4937962;29;20050;-77
2020/12/30 08:08:34;;;;;;;3.55;1.48;;;2.90;99.90;;;;;;4920938;29;20107;-75
2020/12/30 08:10:59;;;;;;;2.05;1.70;;;3.40;99.90;;;;;;4937528;29;20099;-75
2020/12/30 08:13:25;;;;;;;1.58;1.30;;;3.00;99.90;;;;;;4938021;29;20102;-75
2020/12/30 08:15:52;;;;;;;1.50;1.40;;;2.40;99.90;;;;;;4937470;29;20479;-76
2020/12/30 08:18:18;;;;;;;1.80;1.30;;;2.00;99.90;;;;;;4937223;29;20059;-78
2020/12/30 08:20:44;;;;;;;1.63;1.35;;;1.80;99.90;;;;;;4899054;29;20071;-72
2020/12/30 08:23:09;;;;;;;1.60;1.50;;;1.70;99.90;;;;;;4885100;29;20067;-72
2020/12/30 08:25:35;;;;;;;2.15;1.67;;;1.50;99.90;;;;;;4883663;29;20052;-73
2020/12/30 08:28:05;;;;;;;2.03;1.83;;;1.50;99.90;;;;;;4889261;29;20096;-73
2020/12/30 08:30:34;;;;;;;2.78;1.70;;;1.50;99.90;;;;;;4889197;29;20069;-72
2020/12/30 08:33:08;;;;;;;3.70;1.83;;;1.50;99.90;;;;;;4888058;29;20565;-72
2020/12/30 08:35:39;;;;;;;1.90;1.52;;;1.50;99.90;;;;;;4888464;29;20093;-71
2020/12/30 08:38:18;;;;;;;2.13;1.70;;;1.40;99.90;;;;;;4889398;29;20241;-73
2020/12/30 08:40:49;;;;;;;1.40;1.30;;;1.50;99.90;;;;;;4895043;29;20420;-72
2020/12/30 08:43:37;;;;;;;1.30;1.10;;;1.60;99.90;;;;;;4894565;29;20045;-73
2020/12/30 08:46:09;;;;;;;2.10;1.60;;;1.80;99.90;;;;;;4892121;29;20028;-74
2020/12/30 08:48:44;;;;;;;1.88;1.50;;;1.80;99.90;;;;;;4899303;29;20032;-74
2020/12/30 08:51:10;;;;;;;2.50;1.77;;;1.60;99.90;;;;;;4899750;29;20025;-74
2020/12/30 08:53:40;;;;;;;2.33;1.88;;;1.50;99.90;;;;;;4894777;29;20084;-74
2020/12/30 08:56:07;;;;;;;3.08;1.80;;;1.50;99.90;;;;;;4897250;29;20553;-78
2020/12/30 08:58:33;;;;;;;2.58;2.05;;;1.50;99.90;;;;;;4898164;29;20025;-75
2020/12/30 09:00:59;;;;;;;3.85;2.28;;;1.50;99.90;;;;;;4917158;29;20032;-74
2020/12/30 09:03:27;;;;;;;2.55;1.85;;;2.20;99.90;;;;;;4918378;29;20042;-73
2020/12/30 09:05:58;;;;;;;3.50;1.50;;;2.10;99.90;;;;;;4911663;29;20084;-73
2020/12/30 09:08:29;;;;;;;2.70;1.42;;;2.00;99.90;;;;;;4899008;29;20029;-73
2020/12/30 09:10:57;;;;;;;2.10;1.50;;;1.70;99.90;;;;;;4899199;29;20107;-74
2020/12/30 09:13:33;;;;;;;2.55;1.38;;;1.60;99.90;;;;;;4899327;29;20493;-72
2020/12/30 09:16:04;;;;;;;2.78;2.00;;;1.60;99.90;;;;;;4899180;29;20043;-73
2020/12/30 09:18:30;;;;;;;2.05;1.60;;;1.50;99.90;;;;;;4902173;29;20084;-74
2020/12/30 09:20:57;;;;;;;2.83;2.08;;;1.50;99.90;;;;;;4936968;29;20490;-73
2020/12/30 09:23:24;;;;;;;1.98;1.63;;;1.40;99.90;;;;;;4936996;29;20036;-73
2020/12/30 09:25:51;;;;;;;2.83;1.92;;;1.40;99.90;;;;;;4936704;29;20039;-73
2020/12/30 09:28:17;;;;;;;3.42;2.10;;;1.40;99.90;;;;;;4936924;29;20034;-73
2020/12/30 09:30:44;;;;;;;2.67;1.80;;;1.30;99.90;;;;;;4936708;29;20031;-73
2020/12/30 09:33:18;;;;;;;2.30;1.60;;;1.30;99.90;;;;;;4937038;29;20148;-73
2020/12/30 09:35:45;;;;;;;4.63;2.10;;;1.30;99.90;;;;;;4936663;29;20032;-76
2020/12/30 09:38:22;;;;;;;2.50;1.70;;;1.30;99.90;;;;;;4936816;29;20056;-74
2020/12/30 09:40:50;;;;;;;2.25;1.88;;;1.30;99.90;;;;;;4936510;29;20480;-74
2020/12/30 09:43:26;;;;;;;7.00;2.17;;;1.40;99.90;;;;;;4936657;29;20039;-74
2020/12/30 09:46:01;;;;;;;4.25;2.13;;;1.40;99.90;;;;;;4936446;29;20050;-74
2020/12/30 09:48:27;;;;;;;2.88;2.10;;;1.40;99.90;;;;;;4936884;29;20040;-74
2020/12/30 09:50:54;;;;;;;2.42;1.95;;;1.40;99.90;;;;;;4936462;29;20527;-74
2020/12/30 09:53:22;;;;;;;2.17;1.92;;;1.40;99.90;;;;;;4936628;29;20031;-74
2020/12/30 09:55:50;;;;;;;2.53;1.88;;;1.40;99.90;;;;;;4936427;29;20030;-74
2020/12/30 09:58:16;;;;;;;1.80;1.48;;;1.50;99.90;;;;;;4936126;29;20031;-75
2020/12/30 10:00:42;;;;;;;5.35;1.80;;;2.00;99.90;;;;;;4949467;29;20360;-75
2020/12/30 10:03:08;;;;;;;2.22;1.73;;;2.00;99.90;;;;;;4955406;29;20086;-78
2020/12/30 10:05:34;;;;;;;2.35;1.90;;;1.70;99.90;;;;;;4955632;29;20062;-74
2020/12/30 10:08:00;;;;;;;3.40;1.85;;;1.50;99.90;;;;;;4955193;29;20459;-74
2020/12/30 10:10:26;;;;;;;2.97;1.98;;;1.40;99.90;;;;;;4955290;29;20031;-78
2020/12/30 10:12:52;;;;;;;2.70;2.17;;;2.70;99.90;;;;;;4955323;29;20026;-74
2020/12/30 10:15:18;;;;;;;2.00;1.40;;;3.50;99.90;;;;;;4955209;29;20028;-76
2020/12/30 10:17:44;;;;;;;2.17;1.77;;;3.20;99.90;;;;;;4954969;28;20030;-75
2020/12/30 10:20:11;;;;;;;2.67;2.05;;;2.90;99.90;;;;;;4954854;29;20042;-76
2020/12/30 10:22:39;;;;;;;2.35;1.60;;;2.60;99.90;;;;;;4955055;29;20024;-76
2020/12/30 10:25:09;;;;;;;2.60;1.80;;;2.30;99.90;;;;;;4955124;29;20043;-76
2020/12/30 10:27:34;;;;;;;3.38;1.70;;;2.10;99.90;;;;;;4954922;29;20027;-75
2020/12/30 10:30:00;;;;;;;2.72;1.85;;;1.90;99.90;;;;;;4954730;29;20038;-75
2020/12/30 10:32:26;;;;;;;2.70;1.80;;;1.90;99.90;;;;;;4954940;29;20027;-75
2020/12/30 10:34:52;;;;;;;1.77;1.55;;;1.80;99.90;;;;;;4954643;29;20101;-75
2020/12/30 10:37:17;;;;;;;2.95;2.08;;;1.80;99.90;;;;;;4954833;29;20039;-75
2020/12/30 10:39:49;;;;;;;2.00;1.60;;;1.70;99.90;;;;;;4954549;29;20078;-75
2020/12/30 10:42:15;;;;;;;2.35;1.58;;;1.70;99.90;;;;;;4954532;29;20110;-75
2020/12/30 10:44:41;;;;;;;3.17;1.77;;;1.70;99.90;;;;;;4954658;29;20117;-77
2020/12/30 10:47:07;;;;;;;4.15;1.88;;;2.10;99.90;;;;;;4954553;29;20048;-78
2020/12/30 10:49:32;;;;;;;2.95;1.92;;;2.50;99.90;;;;;;4945315;29;20032;-74
2020/12/30 10:51:58;;;;;;;3.70;2.20;;;2.30;99.90;;;;;;4940020;29;20435;-75
2020/12/30 10:54:24;;;;;;;2.50;1.95;;;2.10;99.90;;;;;;4937860;29;20550;-75
2020/12/30 10:56:51;;;;;;;3.55;2.28;;;1.90;99.90;;;;;;4935935;29;20027;-74
2020/12/30 10:59:18;;;;;;;2.40;2.08;;;1.80;99.90;;;;;;4926104;29;20038;-74
2020/12/30 11:01:44;;;;;;;3.13;2.40;;;1.70;99.90;;;;;;4907376;29;20071;-74
2020/12/30 11:04:10;;;;;;;3.42;2.47;;;1.60;99.90;;;;;;4937789;29;20044;-75
2020/12/30 11:06:39;;;;;;;3.53;2.53;;;1.60;99.90;;;;;;4935113;29;20506;-74
2020/12/30 11:09:06;;;;;;;2.60;2.10;;;1.60;99.90;;;;;;4935061;29;20035;-74
2020/12/30 11:11:32;;;;;;;3.67;2.40;;;1.60;99.90;;;;;;4935045;29;20099;-74
2020/12/30 11:13:58;;;;;;;4.15;2.45;;;1.50;99.90;;;;;;4935001;29;20096;-74
2020/12/30 11:16:24;;;;;;;3.63;2.42;;;1.60;99.90;;;;;;4935006;29;20028;-74
2020/12/30 11:18:49;;;;;;;5.10;2.63;;;1.60;99.90;;;;;;4934574;29;20122;-74
2020/12/30 11:21:15;;;;;;;3.58;2.47;;;1.60;99.90;;;;;;4934873;29;20055;-74
2020/12/30 11:23:41;;;;;;;4.53;2.97;;;1.60;99.90;;;;;;4934818;29;20051;-74
2020/12/30 11:26:07;;;;;;;3.38;2.55;;;1.60;99.90;;;;;;4934775;29;20023;-74
2020/12/30 11:28:33;;;;;;;2.88;2.45;;;1.50;99.90;;;;;;4934863;29;20024;-73
2020/12/30 11:30:58;;;;;;;5.53;2.70;;;1.40;99.90;;;;;;4934495;29;20035;-74
2020/12/30 11:33:24;;;;;;;4.20;2.72;;;1.40;99.90;;;;;;4941397;29;20028;-74
2020/12/30 11:35:50;;;;;;;6.10;2.45;;;1.40;99.90;;;;;;4953722;28;20024;-77
2020/12/30 11:38:16;;;;;;;4.07;2.83;;;1.40;99.90;;;;;;4953900;29;20039;-75
2020/12/30 11:40:41;;;;;;;4.53;2.90;;;1.40;99.90;;;;;;4936938;28;20028;-75
2020/12/30 11:43:08;;;;;;;4.57;2.78;;;2.10;99.90;;;;;;4917311;29;20403;-75
2020/12/30 11:45:34;;;;;;;5.65;3.40;;;2.00;99.90;;;;;;4945835;29;20046;-75
2020/12/30 11:48:01;;;;;;;4.38;2.88;;;1.80;99.90;;;;;;4947946;29;20498;-75
2020/12/30 11:50:28;;;;;;;4.80;2.88;;;1.70;99.90;;;;;;4943533;29;20472;-75
2020/12/30 12:06:32;;;;;;;4.35;2.92;;;3.40;99.90;;;;;;5089604;27;20404;-79
2020/12/30 12:08:59;;;;;;;4.97;3.25;;;3.30;99.90;;;;;;5088804;28;20032;-81
2020/12/30 12:11:25;;;;;;;5.60;3.08;;;2.90;99.90;;;;;;5069137;28;20056;-78
2020/12/30 12:13:50;;;;;;;4.93;2.88;;;2.50;99.90;;;;;;5069426;28;20059;-75
2020/12/30 12:16:16;;;;;;;4.43;2.80;;;2.20;99.90;;;;;;5088250;28;20027;-82
2020/12/30 12:18:42;;;;;;;6.93;3.58;;;2.10;99.90;;;;;;5078673;28;20048;-80
2020/12/30 12:21:08;;;;;;;4.32;3.20;;;2.00;99.90;;;;;;5069131;28;20463;-85
2020/12/30 12:23:33;;;;;;;6.53;3.60;;;2.10;99.90;;;;;;5068621;28;20476;-80
2020/12/30 12:25:59;;;;;;;2.17;1.88;;;2.10;99.90;;;;;;5068708;28;20406;-75
2020/12/30 12:28:44;;;;;;;5.80;3.67;;;2.10;99.90;;;;;;5068618;28;20419;-87
2020/12/30 12:31:17;;;;;;;4.38;2.85;;;3.30;99.90;;;;;;5071342;28;20025;-81
2020/12/30 12:33:43;;;;;;;7.35;3.90;;;2.90;99.90;;;;;;5067498;28;20078;-80
2020/12/30 12:36:13;;;;;;;4.78;3.38;;;2.50;99.90;;;;;;5068240;28;20373;-82
2020/12/30 12:38:39;;;;;;;6.88;3.53;;;2.20;99.90;;;;;;5068423;28;20021;-82
2020/12/30 12:41:05;;;;;;;4.70;3.28;;;2.00;99.90;;;;;;5068326;28;20035;-82
2020/12/30 12:43:31;;;;;;;7.13;4.20;;;1.90;99.90;;;;;;5068495;28;20145;-82
2020/12/30 12:45:57;;;;;;;8.05;3.65;;;1.80;99.90;;;;;;5068023;28;20101;-82
2020/12/30 12:48:23;;;;;;;5.10;2.90;;;1.80;99.90;;;;;;5068524;28;20024;-85
2020/12/30 12:50:49;;;;;;;5.45;3.70;;;2.30;99.90;;;;;;5066932;28;20116;-84
2020/12/30 12:53:14;;;;;;;6.50;3.40;;;2.40;99.90;;;;;;5068691;28;20463;-84
2020/12/30 12:55:40;;;;;;;4.78;3.55;;;2.20;99.90;;;;;;5068358;28;20498;-84
2020/12/30 12:58:06;;;;;;;7.05;3.78;;;2.10;99.90;;;;;;5068430;28;20021;-84
2020/12/30 13:00:32;;;;;;;7.22;3.60;;;1.90;99.90;;;;;;5068104;28;20468;-83
2020/12/30 13:02:57;;;;;;;3.92;2.80;;;1.80;99.90;;;;;;5068259;28;20109;-84
2020/12/30 13:05:23;;;;;;;3.92;2.90;;;1.70;99.90;;;;;;5067906;28;20056;-83
2020/12/30 13:07:49;;;;;;;6.88;3.30;;;1.60;99.90;;;;;;5068133;28;20051;-84
2020/12/30 13:10:15;;;;;;;5.00;3.50;;;1.50;99.90;;;;;;5068452;28;20593;-83
2020/12/30 13:12:40;;;;;;;5.88;3.80;;;1.40;99.90;;;;;;5067985;28;20021;-86
2020/12/30 13:15:06;;;;;;;4.65;3.25;;;1.40;99.90;;;;;;5067663;28;20107;-83
2020/12/30 13:17:32;;;;;;;5.75;3.75;;;1.50;99.90;;;;;;5055150;28;20021;-84
2020/12/30 13:19:58;;;;;;;6.28;3.67;;;1.40;99.90;;;;;;5055865;28;20057;-84
2020/12/30 13:22:23;;;;;;;4.20;3.08;;;1.40;99.90;;;;;;5054076;28;20057;-84
2020/12/30 13:24:49;;;;;;;4.30;3.20;;;1.40;99.90;;;;;;5052881;28;20086;-83
2020/12/30 13:27:15;;;;;;;4.63;3.95;;;1.40;99.90;;;;;;5054001;28;20036;-77
2020/12/30 13:29:41;;;;;;;5.55;3.28;;;1.30;99.90;;;;;;5052983;28;20199;-77
2020/12/30 13:32:06;;;;;;;5.22;3.58;;;1.20;99.90;;;;;;5054513;28;20022;-78
2020/12/30 13:34:32;;;;;;;9.95;3.80;;;1.20;99.90;;;;;;5054408;28;20021;-76
2020/12/30 13:36:58;;;;;;;7.03;3.80;;;1.20;99.90;;;;;;5054099;28;20032;-77
2020/12/30 13:39:24;;;;;;;4.65;3.55;;;1.20;99.90;;;;;;5054240;28;20110;-77
2020/12/30 13:41:50;;;;;;;5.30;3.88;;;1.20;99.90;;;;;;5054484;28;20029;-77
2020/12/30 13:44:16;;;;;;;6.80;3.67;;;1.20;99.90;;;;;;5054044;28;20021;-77
2020/12/30 13:46:42;;;;;;;6.90;3.88;;;1.30;99.90;;;;;;5054170;28;20039;-76
2020/12/30 13:49:08;;;;;;;4.50;3.17;;;1.30;99.90;;;;;;5054338;28;20025;-77
2020/12/30 13:51:34;;;;;;;6.38;3.78;;;1.30;99.90;;;;;;5054250;28;20025;-77
2020/12/30 13:54:02;;;;;;;5.90;3.67;;;1.20;99.90;;;;;;5053969;28;20032;-77
2020/12/30 13:56:29;;;;;;;4.53;3.67;;;1.20;99.90;;;;;;5052646;28;20044;-77
2020/12/30 13:58:55;;;;;;;5.90;3.92;;;1.20;99.90;;;;;;5054079;28;20082;-77
2020/12/30 14:01:21;;;;;;;6.03;3.42;;;1.10;99.90;;;;;;5054183;28;20435;-77
2020/12/30 14:03:47;;;;;;;5.05;3.72;;;1.10;99.90;;;;;;5053758;28;20078;-83
2020/12/30 14:06:23;;;;;;;5.10;3.45;;;1.10;99.90;;;;;;5052803;28;20490;-82
2020/12/30 14:08:49;;;;;;;5.05;3.65;;;1.00;99.90;;;;;;5053376;28;20027;-82
2020/12/30 14:11:15;;;;;;;6.07;3.60;;;1.10;99.90;;;;;;5052977;28;20017;-81
2020/12/30 14:13:45;;;;;;;5.32;3.40;;;1.10;99.90;;;;;;5053527;28;20032;-84
2020/12/30 14:16:13;;;;;;;4.97;3.43;;;1.10;99.90;;;;;;5053216;28;20029;-84
2020/12/30 14:18:39;;;;;;;3.75;2.60;;;1.10;99.90;;;;;;5053273;28;20289;-83
2020/12/30 14:21:05;;;;;;;3.85;3.30;;;1.00;99.90;;;;;;5052834;28;20010;-84
2020/12/30 14:23:31;;;;;;;4.90;3.72;;;1.00;99.90;;;;;;5053165;28;20102;-83
2020/12/30 14:25:57;;;;;;;3.80;2.83;;;1.00;99.90;;;;;;5053554;28;20431;-83
2020/12/30 14:28:22;;;;;;;4.20;3.30;;;1.00;99.90;;;;;;5052480;28;20079;-87
2020/12/30 14:30:48;;;;;;;3.97;3.22;;;1.00;99.90;;;;;;5053607;28;20108;-81
2020/12/30 14:33:14;;;;;;;4.57;3.63;;;1.00;99.90;;;;;;5053254;28;20360;-81
2020/12/30 14:35:40;;;;;;;5.43;2.85;;;1.00;99.90;;;;;;5051930;28;20476;-83
2020/12/30 14:38:05;;;;;;;6.25;3.50;;;1.10;99.90;;;;;;5053173;28;20032;-85
2020/12/30 14:40:31;;;;;;;5.57;2.75;;;1.10;99.90;;;;;;5053182;28;20032;-83
2020/12/30 14:42:57;;;;;;;4.85;3.42;;;1.10;99.90;;;;;;5053050;28;20054;-83
2020/12/30 14:45:23;;;;;;;4.15;3.08;;;1.10;99.90;;;;;;5053182;28;20040;-82
2020/12/30 14:47:49;;;;;;;4.07;3.25;;;1.10;99.90;;;;;;5052982;28;20025;-85
2020/12/30 14:50:17;;;;;;;4.78;3.40;;;1.10;99.90;;;;;;5052955;28;20051;-86
2020/12/30 14:52:42;;;;;;;4.28;3.50;;;1.10;99.90;;;;;;5051688;28;20392;-86
2020/12/30 14:55:08;;;;;;;5.88;3.83;;;1.10;99.90;;;;;;5052710;28;20025;-80
2020/12/30 14:57:34;;;;;;;3.55;2.88;;;1.20;99.90;;;;;;5052770;28;20033;-80
2020/12/30 15:00:00;;;;;;;6.35;3.60;;;1.30;99.90;;;;;;5052682;28;20531;-80
2020/12/30 15:02:26;;;;;;;5.57;4.05;;;1.20;99.90;;;;;;5052633;28;20056;-82
2020/12/30 15:04:52;;;;;;;4.25;3.80;;;1.30;99.90;;;;;;5052284;28;20128;-86
2020/12/30 15:07:17;;;;;;;6.10;4.00;;;1.40;99.90;;;;;;5052372;28;20132;-84
2020/12/30 15:09:43;;;;;;;4.57;3.35;;;1.50;99.90;;;;;;5051464;28;20498;-84
2020/12/30 15:12:09;;;;;;;5.22;3.83;;;1.40;99.90;;;;;;5052399;28;20040;-87
2020/12/30 15:14:34;;;;;;;5.50;3.80;;;1.30;99.90;;;;;;5052937;28;20486;-87
2020/12/30 15:17:01;;;;;;;4.95;3.70;;;1.30;99.90;;;;;;5052616;28;20388;-84
2020/12/30 15:19:27;;;;;;;7.32;3.58;;;1.20;99.90;;;;;;5052694;28;20108;-85
2020/12/30 15:21:52;;;;;;;5.32;3.83;;;1.20;99.90;;;;;;5052740;28;20049;-86
2020/12/30 15:24:18;;;;;;;5.00;3.85;;;1.10;99.90;;;;;;5052157;28;20017;-82
2020/12/30 15:26:44;;;;;;;5.40;3.85;;;1.10;99.90;;;;;;5052465;28;20055;-82
2020/12/30 15:29:10;;;;;;;6.45;3.92;;;1.10;99.90;;;;;;5052228;28;20066;-85
2020/12/30 15:31:36;;;;;;;7.07;4.50;;;1.00;99.90;;;;;;5052105;28;20063;-87
2020/12/30 15:34:02;;;;;;;5.32;3.97;;;1.00;99.90;;;;;;5051843;28;20083;-87
2020/12/30 15:36:42;;;;;;;11.15;4.78;;;1.00;99.90;;;;;;5051527;28;20013;-85
2020/12/30 15:39:07;;;;;;;7.27;4.47;;;1.10;99.90;;;;;;5051306;28;20032;-88
2020/12/30 15:41:33;;;;;;;7.60;4.65;;;1.10;99.90;;;;;;5051593;28;20024;-85
2020/12/30 15:43:59;;;;;;;6.38;4.65;;;1.10;99.90;;;;;;5050457;28;20024;-85
2020/12/30 15:46:26;;;;;;;7.57;4.53;;;1.10;99.90;;;;;;5052220;28;20507;-88
2020/12/30 15:48:51;;;;;;;6.47;4.78;;;1.10;99.90;;;;;;5051797;28;20099;-89
2020/12/30 15:51:17;;;;;;;6.93;5.05;;;1.00;99.90;;;;;;5052126;28;20163;-86
2020/12/30 15:53:46;;;;;;;7.10;4.65;;;1.00;99.90;;;;;;5052254;28;20392;-87
2020/12/30 15:56:16;;;;;;;7.25;4.95;;;1.10;99.90;;;;;;5051809;28;20028;-82
2020/12/30 15:58:42;;;;;;;8.10;4.50;;;1.10;99.90;;;;;;5051926;28;20476;-81
2020/12/30 16:01:09;;;;;;;8.45;4.00;;;1.10;99.90;;;;;;5051648;28;20044;-81
2020/12/30 16:03:36;;;;;;;8.07;4.85;;;1.10;99.90;;;;;;5052177;28;20036;-82
2020/12/30 16:06:06;;;;;;;5.05;3.85;;;1.10;99.90;;;;;;5050706;28;20049;-82
2020/12/30 16:08:33;;;;;;;9.85;4.93;;;1.10;99.90;;;;;;5051785;28;20350;-79
2020/12/30 16:10:59;;;;;;;6.07;4.40;;;1.10;99.90;;;;;;5051296;28;20029;-80
2020/12/30 16:13:25;;;;;;;10.35;4.47;;;1.10;99.90;;;;;;5051212;28;20100;-82
2020/12/30 16:15:51;;;;;;;10.05;5.07;;;1.10;99.90;;;;;;5051162;28;20375;-82
2020/12/30 16:18:17;;;;;;;4.85;3.65;;;1.10;99.90;;;;;;5050944;28;20369;-82
2020/12/30 16:20:43;;;;;;;4.78;4.22;;;1.00;99.90;;;;;;5051337;28;20043;-82
2020/12/30 16:23:09;;;;;;;5.82;4.05;;;1.00;99.90;;;;;;5051030;28;20898;-81
2020/12/30 16:25:35;;;;;;;5.55;4.38;;;1.10;99.90;;;;;;5048396;28;20480;-81
2020/12/30 16:28:00;;;;;;;6.07;4.32;;;1.10;99.90;;;;;;5051386;28;20025;-81
2020/12/30 16:30:27;;;;;;;7.22;4.97;;;1.10;99.90;;;;;;5051960;28;20040;-81
2020/12/30 16:32:52;;;;;;;6.70;4.75;;;1.10;99.90;;;;;;5051578;28;20021;-77
2020/12/30 16:35:18;;;;;;;7.10;4.53;;;1.10;99.90;;;;;;5048223;28;20104;-78
2020/12/30 16:37:44;;;;;;;10.48;4.47;;;1.00;99.90;;;;;;5046918;28;20052;-79
2020/12/30 16:40:10;;;;;;;8.63;5.03;;;1.00;99.90;;;;;;5048643;28;20041;-77
2020/12/30 16:42:35;;;;;;;6.68;4.43;;;1.00;99.90;;;;;;5050285;28;20021;-77
2020/12/30 16:45:01;;;;;;;6.53;4.30;;;1.00;99.90;;;;;;5050615;28;20061;-77
2020/12/30 16:47:27;;;;;;;5.68;4.13;;;1.00;99.90;;;;;;5050642;28;20138;-87
2020/12/30 16:49:53;;;;;;;6.38;4.28;;;1.10;99.90;;;;;;5050674;28;20195;-89
2020/12/30 16:52:18;;;;;;;8.13;4.60;;;1.10;99.90;;;;;;5053387;28;20429;-86
2020/12/30 16:54:44;;;;;;;5.95;4.20;;;1.10;99.90;;;;;;5052131;28;20018;-86
2020/12/30 16:57:10;;;;;;;8.60;5.07;;;1.10;99.90;;;;;;5055353;28;20380;-88
2020/12/30 16:59:35;;;;;;;7.03;4.70;;;1.10;99.90;;;;;;5054795;28;20036;-87
2020/12/30 17:02:01;;;;;;;7.40;4.03;;;1.10;99.90;;;;;;5053590;28;20025;-80
2020/12/30 17:04:27;;;;;;;5.30;3.95;;;1.10;99.90;;;;;;5054744;28;20057;-81
2020/12/30 17:06:54;;;;;;;6.05;4.28;;;1.10;99.90;;;;;;5055050;28;20029;-79
2020/12/30 17:09:21;;;;;;;7.82;4.10;;;1.40;99.90;;;;;;5054854;28;20025;-80
2020/12/30 17:11:57;;;;;;;5.38;3.90;;;1.40;99.90;;;;;;5054843;28;20031;-80
2020/12/30 17:14:23;;;;;;;6.03;4.43;;;1.40;99.90;;;;;;5055021;28;20510;-80
2020/12/30 17:16:54;;;;;;;7.05;4.65;;;1.30;99.90;;;;;;5054757;28;20029;-79
2020/12/30 17:19:20;;;;;;;6.13;4.20;;;1.20;99.90;;;;;;5054854;28;20032;-79
2020/12/30 17:21:54;;;;;;;5.95;4.20;;;1.20;99.90;;;;;;5054679;28;20423;-80
2020/12/30 17:24:30;;;;;;;6.50;4.78;;;1.20;99.90;;;;;;5054438;28;20018;-81
2020/12/30 17:27:00;;;;;;;9.88;5.78;;;1.20;99.90;;;;;;5054574;28;20104;-79
2020/12/30 17:29:28;;;;;;;5.60;4.13;;;1.20;99.90;;;;;;5058619;28;20443;-78
2020/12/30 17:31:55;;;;;;;6.78;4.38;;;1.20;99.90;;;;;;5056247;28;20033;-80
2020/12/30 17:34:21;;;;;;;7.85;4.70;;;1.50;99.90;;;;;;5056490;28;20028;-76
2020/12/30 17:36:47;;;;;;;7.93;4.45;;;1.90;99.90;;;;;;5054541;28;20052;-79
2020/12/30 17:39:14;;;;;;;6.95;4.65;;;1.80;99.90;;;;;;5037809;28;20045;-78
2020/12/30 17:41:40;;;;;;;5.95;4.60;;;1.60;99.90;;;;;;5055667;28;20032;-78
2020/12/30 17:44:07;;;;;;;8.98;4.70;;;1.50;99.90;;;;;;5052543;28;20025;-77
2020/12/30 17:46:37;;;;;;;6.68;4.75;;;1.40;99.90;;;;;;5052410;28;20037;-78
2020/12/30 17:49:04;;;;;;;10.38;4.85;;;1.40;99.90;;;;;;5051567;28;20024;-79
2020/12/30 17:51:31;;;;;;;6.97;5.22;;;1.30;99.90;;;;;;5053661;28;20040;-81
2020/12/30 17:53:57;;;;;;;7.50;4.85;;;1.30;99.90;;;;;;5050589;28;20021;-79
2020/12/30 17:56:23;;;;;;;6.53;4.90;;;1.30;99.90;;;;;;5053512;28;20029;-79
2020/12/30 17:58:48;;;;;;;7.18;4.95;;;1.30;99.90;;;;;;5053916;28;20472;-77
2020/12/30 18:01:14;;;;;;;7.85;5.55;;;1.30;99.90;;;;;;5054008;28;20372;-77
2020/12/30 18:03:40;;;;;;;6.32;4.97;;;1.30;99.90;;;;;;5053868;28;20384;-79
2020/12/30 18:06:05;;;;;;;6.15;4.57;;;1.30;99.90;;;;;;5053756;28;20056;-80
2020/12/30 18:08:31;;;;;;;7.00;4.82;;;1.30;99.90;;;;;;5053149;28;20433;-78
2020/12/30 18:10:57;;;;;;;5.95;4.10;;;1.30;99.90;;;;;;5051512;28;20099;-78
2020/12/30 18:13:24;;;;;;;7.85;4.75;;;1.20;99.90;;;;;;5053399;28;20458;-78
2020/12/30 18:15:51;;;;;;;7.38;4.95;;;1.20;99.90;;;;;;5054044;28;20388;-80
2020/12/30 18:18:17;;;;;;;8.85;4.93;;;1.20;99.90;;;;;;5053397;28;20048;-79
2020/12/30 18:20:43;;;;;;;6.65;4.57;;;1.20;99.90;;;;;;5053714;28;20100;-79
2020/12/30 18:23:08;;;;;;;7.13;5.03;;;1.20;99.90;;;;;;5053364;28;20039;-78
2020/12/30 18:25:34;;;;;;;6.32;4.78;;;1.20;99.90;;;;;;5053436;28;20044;-79
2020/12/30 18:28:00;;;;;;;8.00;4.65;;;1.20;99.90;;;;;;5053414;28;20025;-77
2020/12/30 18:30:25;;;;;;;6.38;4.93;;;1.30;99.90;;;;;;5053259;28;20415;-76
2020/12/30 18:32:52;;;;;;;9.45;5.60;;;1.20;99.90;;;;;;5052120;28;20036;-78